White Cap, Mississippi
Current Conditions -  °F | °C
As of 3:53 AM on Saturday 22 Nov 2014 (Local Time) from KMCB Reporting Station
Overcast Overcast  
Wind Chill: 52°   Ceiling: 11000
Heat Index: 52°   Visibility: 10mi
Dew Point: 45°   Wind: 7mph
Humidity: 77%   Direction: 120°ESE
Pressure: 30.24"   Gusts: NA
Location:  31.1819°N, 90.9008°W
Report Text: KMCB 220953Z AUTO 12006KT 10SM OVC110 11/07 A3024 RMK AO2 SLP238 T01110072
Loading
Personal Weather Stations






























Interactive Weather Map New forecast layout! Learn more

10-Day Weather Forecast

Advertisements
Track Severe Weather on mobile